sensor_id;sensor_type;location;lat;lon;timestamp;P1;durP1;ratioP1;P2;durP2;ratioP2
38123;SDS011;23934;47.998;9.832;2024-02-28T00:00:30;54.25;;;18.00;;
38123;SDS011;23934;47.998;9.832;2024-02-28T00:02:56;54.95;;;18.17;;
38123;SDS011;23934;47.998;9.832;2024-02-28T00:05:22;55.00;;;18.17;;
38123;SDS011;23934;47.998;9.832;2024-02-28T00:07:48;57.70;;;19.45;;
38123;SDS011;23934;47.998;9.832;2024-02-28T00:10:14;56.38;;;19.85;;
38123;SDS011;23934;47.998;9.832;2024-02-28T00:12:40;55.42;;;19.40;;
38123;SDS011;23934;47.998;9.832;2024-02-28T00:15:06;53.13;;;17.95;;
38123;SDS011;23934;47.998;9.832;2024-02-28T00:17:37;51.85;;;17.33;;
38123;SDS011;23934;47.998;9.832;2024-02-28T00:20:04;62.60;;;19.15;;
38123;SDS011;23934;47.998;9.832;2024-02-28T00:22:30;49.20;;;18.98;;
38123;SDS011;23934;47.998;9.832;2024-02-28T00:24:56;61.58;;;19.58;;
38123;SDS011;23934;47.998;9.832;2024-02-28T00:27:22;62.97;;;19.83;;
38123;SDS011;23934;47.998;9.832;2024-02-28T00:29:48;60.05;;;17.73;;
38123;SDS011;23934;47.998;9.832;2024-02-28T00:32:14;61.88;;;21.17;;
38123;SDS011;23934;47.998;9.832;2024-02-28T00:34:40;63.83;;;21.08;;
38123;SDS011;23934;47.998;9.832;2024-02-28T00:37:06;65.60;;;20.75;;
38123;SDS011;23934;47.998;9.832;2024-02-28T00:39:32;63.70;;;17.77;;
38123;SDS011;23934;47.998;9.832;2024-02-28T00:41:58;52.42;;;17.90;;
38123;SDS011;23934;47.998;9.832;2024-02-28T00:44:24;66.53;;;20.98;;
38123;SDS011;23934;47.998;9.832;2024-02-28T00:46:50;64.35;;;18.48;;
38123;SDS011;23934;47.998;9.832;2024-02-28T00:49:16;68.55;;;20.70;;
38123;SDS011;23934;47.998;9.832;2024-02-28T00:51:42;63.38;;;20.13;;
38123;SDS011;23934;47.998;9.832;2024-02-28T00:54:07;62.28;;;20.67;;
38123;SDS011;23934;47.998;9.832;2024-02-28T00:56:33;66.20;;;21.85;;
38123;SDS011;23934;47.998;9.832;2024-02-28T00:58:59;65.10;;;20.58;;
38123;SDS011;23934;47.998;9.832;2024-02-28T01:01:25;54.88;;;18.45;;
38123;SDS011;23934;47.998;9.832;2024-02-28T01:03:51;70.57;;;21.75;;
38123;SDS011;23934;47.998;9.832;2024-02-28T01:06:17;69.93;;;21.08;;
38123;SDS011;23934;47.998;9.832;2024-02-28T01:08:43;62.58;;;19.85;;
38123;SDS011;23934;47.998;9.832;2024-02-28T01:11:09;58.00;;;19.55;;
38123;SDS011;23934;47.998;9.832;2024-02-28T01:13:35;62.13;;;19.75;;
38123;SDS011;23934;47.998;9.832;2024-02-28T01:16:01;63.22;;;21.98;;
38123;SDS011;23934;47.998;9.832;2024-02-28T01:18:27;73.57;;;22.10;;
38123;SDS011;23934;47.998;9.832;2024-02-28T01:20:55;74.50;;;21.30;;
38123;SDS011;23934;47.998;9.832;2024-02-28T01:23:21;62.92;;;21.48;;
38123;SDS011;23934;47.998;9.832;2024-02-28T01:25:48;62.85;;;21.70;;
38123;SDS011;23934;47.998;9.832;2024-02-28T01:28:14;69.20;;;20.88;;
38123;SDS011;23934;47.998;9.832;2024-02-28T01:30:39;70.30;;;21.65;;
38123;SDS011;23934;47.998;9.832;2024-02-28T01:33:05;67.93;;;20.73;;
38123;SDS011;23934;47.998;9.832;2024-02-28T01:35:31;64.78;;;20.65;;
38123;SDS011;23934;47.998;9.832;2024-02-28T01:37:57;60.42;;;21.65;;
38123;SDS011;23934;47.998;9.832;2024-02-28T01:40:23;62.20;;;21.63;;
38123;SDS011;23934;47.998;9.832;2024-02-28T01:42:49;62.85;;;21.13;;
38123;SDS011;23934;47.998;9.832;2024-02-28T01:45:15;67.43;;;21.90;;
38123;SDS011;23934;47.998;9.832;2024-02-28T01:47:41;74.35;;;22.95;;
38123;SDS011;23934;47.998;9.832;2024-02-28T01:50:09;75.85;;;22.48;;
38123;SDS011;23934;47.998;9.832;2024-02-28T01:52:35;68.88;;;20.80;;
38123;SDS011;23934;47.998;9.832;2024-02-28T01:55:02;67.45;;;20.77;;
38123;SDS011;23934;47.998;9.832;2024-02-28T01:57:28;68.95;;;20.65;;
38123;SDS011;23934;47.998;9.832;2024-02-28T01:59:54;69.65;;;22.83;;
38123;SDS011;23934;47.998;9.832;2024-02-28T02:02:21;62.47;;;20.83;;
38123;SDS011;23934;47.998;9.832;2024-02-28T02:04:47;68.28;;;22.60;;
38123;SDS011;23934;47.998;9.832;2024-02-28T02:07:13;64.90;;;21.48;;
38123;SDS011;23934;47.998;9.832;2024-02-28T02:09:39;67.45;;;22.27;;
38123;SDS011;23934;47.998;9.832;2024-02-28T02:12:05;68.05;;;21.85;;
38123;SDS011;23934;47.998;9.832;2024-02-28T02:14:31;68.85;;;21.80;;
38123;SDS011;23934;47.998;9.832;2024-02-28T02:16:57;64.40;;;20.40;;
38123;SDS011;23934;47.998;9.832;2024-02-28T02:19:23;74.53;;;23.40;;
38123;SDS011;23934;47.998;9.832;2024-02-28T02:21:50;79.35;;;21.98;;
38123;SDS011;23934;47.998;9.832;2024-02-28T02:24:18;79.93;;;24.63;;
38123;SDS011;23934;47.998;9.832;2024-02-28T02:26:44;68.90;;;21.92;;
38123;SDS011;23934;47.998;9.832;2024-02-28T02:29:11;77.78;;;23.67;;
38123;SDS011;23934;47.998;9.832;2024-02-28T02:31:37;66.63;;;21.83;;
38123;SDS011;23934;47.998;9.832;2024-02-28T02:34:03;69.15;;;23.75;;
38123;SDS011;23934;47.998;9.832;2024-02-28T02:36:29;75.68;;;23.52;;
38123;SDS011;23934;47.998;9.832;2024-02-28T02:38:55;76.38;;;22.90;;
38123;SDS011;23934;47.998;9.832;2024-02-28T02:41:22;73.32;;;25.40;;
38123;SDS011;23934;47.998;9.832;2024-02-28T02:43:48;76.35;;;24.52;;
38123;SDS011;23934;47.998;9.832;2024-02-28T02:46:14;71.35;;;22.80;;
38123;SDS011;23934;47.998;9.832;2024-02-28T02:48:40;74.47;;;22.15;;
38123;SDS011;23934;47.998;9.832;2024-02-28T02:51:06;65.22;;;22.67;;
38123;SDS011;23934;47.998;9.832;2024-02-28T02:53:32;75.88;;;24.08;;
38123;SDS011;23934;47.998;9.832;2024-02-28T02:55:58;67.38;;;22.48;;
38123;SDS011;23934;47.998;9.832;2024-02-28T02:58:24;76.32;;;23.35;;
38123;SDS011;23934;47.998;9.832;2024-02-28T03:00:50;83.53;;;23.50;;
38123;SDS011;23934;47.998;9.832;2024-02-28T03:03:16;76.53;;;22.20;;
38123;SDS011;23934;47.998;9.832;2024-02-28T03:05:42;75.20;;;23.77;;
38123;SDS011;23934;47.998;9.832;2024-02-28T03:08:08;78.30;;;25.10;;
38123;SDS011;23934;47.998;9.832;2024-02-28T03:10:34;75.88;;;23.52;;
38123;SDS011;23934;47.998;9.832;2024-02-28T03:13:00;77.10;;;23.98;;
38123;SDS011;23934;47.998;9.832;2024-02-28T03:15:26;77.55;;;24.95;;
38123;SDS011;23934;47.998;9.832;2024-02-28T03:17:52;71.95;;;23.40;;
38123;SDS011;23934;47.998;9.832;2024-02-28T03:20:18;76.60;;;24.02;;
38123;SDS011;23934;47.998;9.832;2024-02-28T03:22:44;63.70;;;20.38;;
38123;SDS011;23934;47.998;9.832;2024-02-28T03:25:10;78.90;;;21.98;;
38123;SDS011;23934;47.998;9.832;2024-02-28T03:27:36;80.30;;;23.23;;
38123;SDS011;23934;47.998;9.832;2024-02-28T03:30:02;78.63;;;24.02;;
38123;SDS011;23934;47.998;9.832;2024-02-28T03:32:28;78.20;;;22.92;;
38123;SDS011;23934;47.998;9.832;2024-02-28T03:34:54;71.88;;;23.60;;
38123;SDS011;23934;47.998;9.832;2024-02-28T03:37:20;76.05;;;22.92;;
38123;SDS011;23934;47.998;9.832;2024-02-28T03:39:46;76.80;;;23.95;;
38123;SDS011;23934;47.998;9.832;2024-02-28T03:42:12;82.13;;;24.67;;
38123;SDS011;23934;47.998;9.832;2024-02-28T03:44:38;76.53;;;23.73;;
38123;SDS011;23934;47.998;9.832;2024-02-28T03:47:04;78.93;;;23.92;;
38123;SDS011;23934;47.998;9.832;2024-02-28T03:49:30;80.82;;;23.27;;
38123;SDS011;23934;47.998;9.832;2024-02-28T03:51:56;82.60;;;24.20;;
38123;SDS011;23934;47.998;9.832;2024-02-28T03:54:22;76.75;;;22.65;;
38123;SDS011;23934;47.998;9.832;2024-02-28T03:56:48;99.10;;;25.98;;
38123;SDS011;23934;47.998;9.832;2024-02-28T03:59:14;78.25;;;25.05;;
38123;SDS011;23934;47.998;9.832;2024-02-28T04:01:40;96.68;;;25.13;;
38123;SDS011;23934;47.998;9.832;2024-02-28T04:04:06;80.72;;;25.23;;
38123;SDS011;23934;47.998;9.832;2024-02-28T04:06:32;87.68;;;24.52;;
38123;SDS011;23934;47.998;9.832;2024-02-28T04:08:58;92.50;;;24.75;;
38123;SDS011;23934;47.998;9.832;2024-02-28T04:11:24;94.28;;;27.15;;
38123;SDS011;23934;47.998;9.832;2024-02-28T04:13:50;85.72;;;23.98;;
38123;SDS011;23934;47.998;9.832;2024-02-28T04:16:16;98.28;;;27.10;;
38123;SDS011;23934;47.998;9.832;2024-02-28T04:18:42;103.45;;;27.63;;
38123;SDS011;23934;47.998;9.832;2024-02-28T04:21:08;75.07;;;24.80;;
38123;SDS011;23934;47.998;9.832;2024-02-28T04:23:34;85.50;;;24.65;;
38123;SDS011;23934;47.998;9.832;2024-02-28T04:26:00;80.15;;;25.15;;
38123;SDS011;23934;47.998;9.832;2024-02-28T04:28:26;80.75;;;23.48;;
38123;SDS011;23934;47.998;9.832;2024-02-28T04:30:52;93.20;;;27.35;;
38123;SDS011;23934;47.998;9.832;2024-02-28T04:33:18;90.22;;;27.13;;
38123;SDS011;23934;47.998;9.832;2024-02-28T04:35:44;90.50;;;27.08;;
38123;SDS011;23934;47.998;9.832;2024-02-28T04:38:11;85.85;;;25.98;;
38123;SDS011;23934;47.998;9.832;2024-02-28T04:40:37;85.13;;;24.77;;
38123;SDS011;23934;47.998;9.832;2024-02-28T04:43:03;95.32;;;26.05;;
38123;SDS011;23934;47.998;9.832;2024-02-28T04:45:29;98.20;;;26.98;;
38123;SDS011;23934;47.998;9.832;2024-02-28T04:47:55;88.45;;;27.85;;
38123;SDS011;23934;47.998;9.832;2024-02-28T04:50:22;96.85;;;26.40;;
38123;SDS011;23934;47.998;9.832;2024-02-28T04:52:48;92.68;;;27.00;;
38123;SDS011;23934;47.998;9.832;2024-02-28T04:55:14;92.55;;;27.40;;
38123;SDS011;23934;47.998;9.832;2024-02-28T04:57:40;83.85;;;25.10;;
38123;SDS011;23934;47.998;9.832;2024-02-28T05:00:06;91.22;;;26.08;;
38123;SDS011;23934;47.998;9.832;2024-02-28T05:02:35;84.70;;;25.65;;
38123;SDS011;23934;47.998;9.832;2024-02-28T05:05:01;90.47;;;25.83;;
38123;SDS011;23934;47.998;9.832;2024-02-28T05:07:27;96.95;;;28.50;;
38123;SDS011;23934;47.998;9.832;2024-02-28T05:09:54;88.82;;;25.65;;
38123;SDS011;23934;47.998;9.832;2024-02-28T05:12:20;106.50;;;28.90;;
38123;SDS011;23934;47.998;9.832;2024-02-28T05:14:47;93.30;;;26.52;;
38123;SDS011;23934;47.998;9.832;2024-02-28T05:17:12;88.88;;;25.13;;
38123;SDS011;23934;47.998;9.832;2024-02-28T05:19:39;89.75;;;25.33;;
38123;SDS011;23934;47.998;9.832;2024-02-28T05:22:05;97.68;;;27.10;;
38123;SDS011;23934;47.998;9.832;2024-02-28T05:24:31;89.78;;;27.48;;
38123;SDS011;23934;47.998;9.832;2024-02-28T05:26:56;91.22;;;26.30;;
38123;SDS011;23934;47.998;9.832;2024-02-28T05:29:22;85.50;;;25.95;;
38123;SDS011;23934;47.998;9.832;2024-02-28T05:31:48;78.68;;;24.60;;
38123;SDS011;23934;47.998;9.832;2024-02-28T05:34:14;85.47;;;24.13;;
38123;SDS011;23934;47.998;9.832;2024-02-28T05:36:41;93.90;;;28.25;;
38123;SDS011;23934;47.998;9.832;2024-02-28T05:39:07;90.20;;;24.60;;
38123;SDS011;23934;47.998;9.832;2024-02-28T05:41:33;92.60;;;26.65;;
38123;SDS011;23934;47.998;9.832;2024-02-28T05:43:59;85.72;;;23.75;;
38123;SDS011;23934;47.998;9.832;2024-02-28T05:46:25;87.63;;;24.70;;
38123;SDS011;23934;47.998;9.832;2024-02-28T05:48:51;83.93;;;25.20;;
38123;SDS011;23934;47.998;9.832;2024-02-28T05:51:17;77.50;;;25.15;;
38123;SDS011;23934;47.998;9.832;2024-02-28T05:53:43;86.95;;;26.02;;
38123;SDS011;23934;47.998;9.832;2024-02-28T05:56:09;84.63;;;25.95;;
38123;SDS011;23934;47.998;9.832;2024-02-28T05:58:48;90.82;;;26.40;;
38123;SDS011;23934;47.998;9.832;2024-02-28T06:01:17;108.60;;;27.75;;
38123;SDS011;23934;47.998;9.832;2024-02-28T06:03:45;91.10;;;24.77;;
38123;SDS011;23934;47.998;9.832;2024-02-28T06:06:11;86.97;;;25.90;;
38123;SDS011;23934;47.998;9.832;2024-02-28T06:08:38;94.38;;;24.55;;
38123;SDS011;23934;47.998;9.832;2024-02-28T06:11:04;98.18;;;26.77;;
38123;SDS011;23934;47.998;9.832;2024-02-28T06:13:30;95.95;;;23.92;;
38123;SDS011;23934;47.998;9.832;2024-02-28T06:15:56;110.38;;;28.23;;
38123;SDS011;23934;47.998;9.832;2024-02-28T06:18:23;104.75;;;26.88;;
38123;SDS011;23934;47.998;9.832;2024-02-28T06:20:51;116.82;;;30.27;;
38123;SDS011;23934;47.998;9.832;2024-02-28T06:23:17;92.32;;;25.30;;
38123;SDS011;23934;47.998;9.832;2024-02-28T06:25:43;97.47;;;27.27;;
38123;SDS011;23934;47.998;9.832;2024-02-28T06:28:09;117.68;;;27.45;;
38123;SDS011;23934;47.998;9.832;2024-02-28T06:30:35;95.10;;;27.92;;
38123;SDS011;23934;47.998;9.832;2024-02-28T06:33:01;117.47;;;26.85;;
38123;SDS011;23934;47.998;9.832;2024-02-28T06:35:27;106.30;;;28.60;;
38123;SDS011;23934;47.998;9.832;2024-02-28T06:37:53;106.20;;;27.67;;
38123;SDS011;23934;47.998;9.832;2024-02-28T06:40:20;107.80;;;29.50;;
38123;SDS011;23934;47.998;9.832;2024-02-28T06:42:46;120.10;;;26.52;;
38123;SDS011;23934;47.998;9.832;2024-02-28T06:45:11;101.97;;;26.17;;
38123;SDS011;23934;47.998;9.832;2024-02-28T06:47:37;108.57;;;26.05;;
38123;SDS011;23934;47.998;9.832;2024-02-28T06:50:05;108.65;;;28.58;;
38123;SDS011;23934;47.998;9.832;2024-02-28T06:52:31;101.15;;;26.70;;
38123;SDS011;23934;47.998;9.832;2024-02-28T06:54:58;112.40;;;29.30;;
38123;SDS011;23934;47.998;9.832;2024-02-28T06:57:25;111.93;;;25.13;;
38123;SDS011;23934;47.998;9.832;2024-02-28T06:59:53;108.00;;;29.02;;
38123;SDS011;23934;47.998;9.832;2024-02-28T07:02:19;102.18;;;28.55;;
38123;SDS011;23934;47.998;9.832;2024-02-28T07:04:45;98.95;;;26.88;;
38123;SDS011;23934;47.998;9.832;2024-02-28T07:07:11;108.05;;;28.55;;
38123;SDS011;23934;47.998;9.832;2024-02-28T07:09:40;100.72;;;27.13;;
38123;SDS011;23934;47.998;9.832;2024-02-28T07:12:06;105.90;;;29.83;;
38123;SDS011;23934;47.998;9.832;2024-02-28T07:14:32;109.38;;;29.20;;
38123;SDS011;23934;47.998;9.832;2024-02-28T07:16:58;126.93;;;27.50;;
38123;SDS011;23934;47.998;9.832;2024-02-28T07:19:24;102.28;;;27.30;;
38123;SDS011;23934;47.998;9.832;2024-02-28T07:21:50;107.78;;;26.73;;
38123;SDS011;23934;47.998;9.832;2024-02-28T07:24:16;100.05;;;28.48;;
38123;SDS011;23934;47.998;9.832;2024-02-28T07:26:42;104.28;;;27.67;;
38123;SDS011;23934;47.998;9.832;2024-02-28T07:29:08;104.40;;;24.92;;
38123;SDS011;23934;47.998;9.832;2024-02-28T07:31:34;111.45;;;27.10;;
38123;SDS011;23934;47.998;9.832;2024-02-28T07:34:00;112.55;;;27.30;;
38123;SDS011;23934;47.998;9.832;2024-02-28T07:36:26;105.28;;;29.67;;
38123;SDS011;23934;47.998;9.832;2024-02-28T07:38:52;104.90;;;28.75;;
38123;SDS011;23934;47.998;9.832;2024-02-28T07:41:18;93.55;;;26.20;;
38123;SDS011;23934;47.998;9.832;2024-02-28T07:43:44;82.85;;;24.77;;
38123;SDS011;23934;47.998;9.832;2024-02-28T07:46:10;92.25;;;25.05;;
38123;SDS011;23934;47.998;9.832;2024-02-28T07:48:37;100.65;;;27.23;;
38123;SDS011;23934;47.998;9.832;2024-02-28T07:51:06;103.43;;;27.85;;
38123;SDS011;23934;47.998;9.832;2024-02-28T07:53:32;111.38;;;27.75;;
38123;SDS011;23934;47.998;9.832;2024-02-28T07:55:58;90.50;;;25.98;;
38123;SDS011;23934;47.998;9.832;2024-02-28T07:58:24;108.78;;;28.27;;
38123;SDS011;23934;47.998;9.832;2024-02-28T08:00:50;97.00;;;27.23;;
38123;SDS011;23934;47.998;9.832;2024-02-28T08:03:20;92.03;;;26.15;;
38123;SDS011;23934;47.998;9.832;2024-02-28T08:05:46;96.78;;;26.80;;
38123;SDS011;23934;47.998;9.832;2024-02-28T08:08:13;106.90;;;27.90;;
38123;SDS011;23934;47.998;9.832;2024-02-28T08:10:39;107.20;;;29.88;;
38123;SDS011;23934;47.998;9.832;2024-02-28T08:13:05;106.07;;;27.15;;
38123;SDS011;23934;47.998;9.832;2024-02-28T08:15:32;96.80;;;28.17;;
38123;SDS011;23934;47.998;9.832;2024-02-28T08:17:58;90.45;;;26.52;;
38123;SDS011;23934;47.998;9.832;2024-02-28T08:20:24;100.50;;;26.05;;
38123;SDS011;23934;47.998;9.832;2024-02-28T08:22:51;99.65;;;27.75;;
38123;SDS011;23934;47.998;9.832;2024-02-28T08:25:17;91.78;;;27.88;;
38123;SDS011;23934;47.998;9.832;2024-02-28T08:27:43;101.25;;;27.98;;
38123;SDS011;23934;47.998;9.832;2024-02-28T08:30:09;119.47;;;28.05;;
38123;SDS011;23934;47.998;9.832;2024-02-28T08:32:35;112.43;;;30.10;;
38123;SDS011;23934;47.998;9.832;2024-02-28T08:35:01;100.40;;;26.13;;
38123;SDS011;23934;47.998;9.832;2024-02-28T08:37:27;107.22;;;30.17;;
38123;SDS011;23934;47.998;9.832;2024-02-28T08:39:54;108.88;;;28.70;;
38123;SDS011;23934;47.998;9.832;2024-02-28T08:42:23;105.22;;;29.25;;
38123;SDS011;23934;47.998;9.832;2024-02-28T08:44:48;108.78;;;28.55;;
38123;SDS011;23934;47.998;9.832;2024-02-28T08:47:14;96.72;;;26.98;;
38123;SDS011;23934;47.998;9.832;2024-02-28T08:49:40;104.53;;;29.25;;
38123;SDS011;23934;47.998;9.832;2024-02-28T08:52:06;103.78;;;27.27;;
38123;SDS011;23934;47.998;9.832;2024-02-28T08:54:32;93.32;;;26.27;;
38123;SDS011;23934;47.998;9.832;2024-02-28T08:56:58;96.93;;;26.02;;
38123;SDS011;23934;47.998;9.832;2024-02-28T08:59:24;100.60;;;26.35;;
38123;SDS011;23934;47.998;9.832;2024-02-28T09:01:50;101.07;;;27.02;;
38123;SDS011;23934;47.998;9.832;2024-02-28T09:04:16;88.82;;;24.88;;
38123;SDS011;23934;47.998;9.832;2024-02-28T09:06:42;92.35;;;27.50;;
38123;SDS011;23934;47.998;9.832;2024-02-28T09:09:08;83.32;;;23.13;;
38123;SDS011;23934;47.998;9.832;2024-02-28T09:11:34;91.15;;;24.40;;
38123;SDS011;23934;47.998;9.832;2024-02-28T09:14:00;86.03;;;25.02;;
38123;SDS011;23934;47.998;9.832;2024-02-28T09:16:26;93.25;;;25.13;;
38123;SDS011;23934;47.998;9.832;2024-02-28T09:18:53;89.15;;;24.50;;
38123;SDS011;23934;47.998;9.832;2024-02-28T09:21:19;83.07;;;22.17;;
38123;SDS011;23934;47.998;9.832;2024-02-28T09:23:45;71.38;;;20.58;;
38123;SDS011;23934;47.998;9.832;2024-02-28T09:26:11;99.68;;;25.80;;
38123;SDS011;23934;47.998;9.832;2024-02-28T09:28:38;88.85;;;24.23;;
38123;SDS011;23934;47.998;9.832;2024-02-28T09:31:04;92.32;;;24.27;;
38123;SDS011;23934;47.998;9.832;2024-02-28T09:33:30;77.35;;;21.67;;
38123;SDS011;23934;47.998;9.832;2024-02-28T09:35:56;79.60;;;22.88;;
38123;SDS011;23934;47.998;9.832;2024-02-28T09:38:22;83.47;;;22.67;;
38123;SDS011;23934;47.998;9.832;2024-02-28T09:40:48;73.63;;;20.65;;
38123;SDS011;23934;47.998;9.832;2024-02-28T09:43:24;75.40;;;21.27;;
38123;SDS011;23934;47.998;9.832;2024-02-28T09:45:54;81.80;;;22.90;;
38123;SDS011;23934;47.998;9.832;2024-02-28T09:48:22;76.07;;;21.27;;
38123;SDS011;23934;47.998;9.832;2024-02-28T09:50:48;78.82;;;21.67;;
38123;SDS011;23934;47.998;9.832;2024-02-28T09:53:14;81.03;;;23.20;;
38123;SDS011;23934;47.998;9.832;2024-02-28T09:55:40;85.00;;;24.05;;
38123;SDS011;23934;47.998;9.832;2024-02-28T09:58:07;85.85;;;23.38;;
38123;SDS011;23934;47.998;9.832;2024-02-28T10:00:33;71.45;;;20.85;;
38123;SDS011;23934;47.998;9.832;2024-02-28T10:03:00;69.07;;;21.67;;
38123;SDS011;23934;47.998;9.832;2024-02-28T10:05:27;68.72;;;21.13;;
38123;SDS011;23934;47.998;9.832;2024-02-28T10:07:53;78.90;;;22.80;;
38123;SDS011;23934;47.998;9.832;2024-02-28T10:10:19;74.55;;;22.48;;
38123;SDS011;23934;47.998;9.832;2024-02-28T10:12:45;71.45;;;21.48;;
38123;SDS011;23934;47.998;9.832;2024-02-28T10:15:11;66.07;;;20.23;;
38123;SDS011;23934;47.998;9.832;2024-02-28T10:17:37;67.40;;;19.50;;
38123;SDS011;23934;47.998;9.832;2024-02-28T10:20:03;64.57;;;20.05;;
38123;SDS011;23934;47.998;9.832;2024-02-28T10:22:36;78.15;;;21.60;;
38123;SDS011;23934;47.998;9.832;2024-02-28T10:25:02;65.65;;;19.10;;
38123;SDS011;23934;47.998;9.832;2024-02-28T10:27:31;67.50;;;20.55;;
38123;SDS011;23934;47.998;9.832;2024-02-28T10:29:57;69.22;;;19.75;;
38123;SDS011;23934;47.998;9.832;2024-02-28T10:32:23;67.53;;;22.02;;
38123;SDS011;23934;47.998;9.832;2024-02-28T10:34:49;69.45;;;19.35;;
38123;SDS011;23934;47.998;9.832;2024-02-28T10:37:15;58.97;;;16.80;;
38123;SDS011;23934;47.998;9.832;2024-02-28T10:39:42;60.97;;;19.67;;
38123;SDS011;23934;47.998;9.832;2024-02-28T10:42:08;60.80;;;18.17;;
38123;SDS011;23934;47.998;9.832;2024-02-28T10:44:35;56.78;;;17.15;;
38123;SDS011;23934;47.998;9.832;2024-02-28T10:47:02;55.85;;;19.08;;
38123;SDS011;23934;47.998;9.832;2024-02-28T10:49:28;61.70;;;18.48;;
38123;SDS011;23934;47.998;9.832;2024-02-28T10:51:55;57.92;;;18.35;;
38123;SDS011;23934;47.998;9.832;2024-02-28T10:54:21;70.65;;;20.23;;
38123;SDS011;23934;47.998;9.832;2024-02-28T10:56:50;70.80;;;18.45;;
38123;SDS011;23934;47.998;9.832;2024-02-28T10:59:17;62.38;;;19.00;;
38123;SDS011;23934;47.998;9.832;2024-02-28T11:01:43;89.22;;;19.83;;
38123;SDS011;23934;47.998;9.832;2024-02-28T11:04:13;63.13;;;19.52;;
38123;SDS011;23934;47.998;9.832;2024-02-28T11:09:20;62.65;;;18.92;;
38123;SDS011;23934;47.998;9.832;2024-02-28T11:11:50;66.35;;;19.92;;
38123;SDS011;23934;47.998;9.832;2024-02-28T11:14:17;55.20;;;17.65;;
38123;SDS011;23934;47.998;9.832;2024-02-28T11:16:46;68.70;;;18.63;;
38123;SDS011;23934;47.998;9.832;2024-02-28T11:19:19;55.80;;;17.85;;
38123;SDS011;23934;47.998;9.832;2024-02-28T11:21:51;59.33;;;19.70;;
38123;SDS011;23934;47.998;9.832;2024-02-28T11:24:19;69.25;;;17.30;;
38123;SDS011;23934;47.998;9.832;2024-02-28T11:26:48;61.35;;;19.60;;
38123;SDS011;23934;47.998;9.832;2024-02-28T11:29:15;61.95;;;18.70;;
38123;SDS011;23934;47.998;9.832;2024-02-28T11:31:41;61.70;;;17.23;;
38123;SDS011;23934;47.998;9.832;2024-02-28T11:34:08;65.32;;;18.33;;
38123;SDS011;23934;47.998;9.832;2024-02-28T11:36:34;62.92;;;18.55;;
38123;SDS011;23934;47.998;9.832;2024-02-28T11:39:01;59.80;;;19.20;;
38123;SDS011;23934;47.998;9.832;2024-02-28T11:41:28;52.65;;;18.73;;
38123;SDS011;23934;47.998;9.832;2024-02-28T11:43:54;63.15;;;19.25;;
38123;SDS011;23934;47.998;9.832;2024-02-28T11:46:19;62.42;;;19.88;;
38123;SDS011;23934;47.998;9.832;2024-02-28T11:48:45;61.00;;;19.52;;
38123;SDS011;23934;47.998;9.832;2024-02-28T11:51:12;56.47;;;19.05;;
38123;SDS011;23934;47.998;9.832;2024-02-28T11:53:37;60.38;;;18.80;;
38123;SDS011;23934;47.998;9.832;2024-02-28T11:56:03;57.58;;;18.92;;
38123;SDS011;23934;47.998;9.832;2024-02-28T11:58:29;52.35;;;17.63;;
38123;SDS011;23934;47.998;9.832;2024-02-28T12:00:55;52.58;;;17.10;;
38123;SDS011;23934;47.998;9.832;2024-02-28T12:03:22;57.40;;;18.10;;
38123;SDS011;23934;47.998;9.832;2024-02-28T12:05:48;53.25;;;18.73;;
38123;SDS011;23934;47.998;9.832;2024-02-28T12:08:14;56.45;;;18.52;;
38123;SDS011;23934;47.998;9.832;2024-02-28T12:10:40;50.47;;;19.00;;
38123;SDS011;23934;47.998;9.832;2024-02-28T12:13:06;59.33;;;19.42;;
38123;SDS011;23934;47.998;9.832;2024-02-28T12:15:32;55.65;;;18.38;;
38123;SDS011;23934;47.998;9.832;2024-02-28T12:17:58;55.35;;;17.73;;
38123;SDS011;23934;47.998;9.832;2024-02-28T12:20:24;58.13;;;17.95;;
38123;SDS011;23934;47.998;9.832;2024-02-28T12:22:50;55.60;;;19.38;;
38123;SDS011;23934;47.998;9.832;2024-02-28T12:25:16;62.60;;;19.08;;
38123;SDS011;23934;47.998;9.832;2024-02-28T12:27:43;67.20;;;19.80;;
38123;SDS011;23934;47.998;9.832;2024-02-28T12:30:09;61.13;;;18.85;;
38123;SDS011;23934;47.998;9.832;2024-02-28T12:32:35;54.38;;;19.48;;
38123;SDS011;23934;47.998;9.832;2024-02-28T12:35:01;69.00;;;19.77;;
38123;SDS011;23934;47.998;9.832;2024-02-28T12:37:29;62.50;;;19.10;;
38123;SDS011;23934;47.998;9.832;2024-02-28T12:39:55;54.58;;;19.67;;
38123;SDS011;23934;47.998;9.832;2024-02-28T12:42:21;50.50;;;18.40;;
38123;SDS011;23934;47.998;9.832;2024-02-28T12:44:47;57.88;;;18.92;;
38123;SDS011;23934;47.998;9.832;2024-02-28T12:47:13;65.13;;;17.55;;
38123;SDS011;23934;47.998;9.832;2024-02-28T12:49:39;61.28;;;19.70;;
38123;SDS011;23934;47.998;9.832;2024-02-28T12:52:05;63.90;;;19.73;;
38123;SDS011;23934;47.998;9.832;2024-02-28T12:54:31;63.80;;;20.48;;
38123;SDS011;23934;47.998;9.832;2024-02-28T12:56:57;73.35;;;21.95;;
38123;SDS011;23934;47.998;9.832;2024-02-28T12:59:24;71.75;;;22.27;;
38123;SDS011;23934;47.998;9.832;2024-02-28T13:01:50;66.90;;;19.75;;
38123;SDS011;23934;47.998;9.832;2024-02-28T13:04:16;65.60;;;20.85;;
38123;SDS011;23934;47.998;9.832;2024-02-28T13:06:42;59.08;;;20.35;;
38123;SDS011;23934;47.998;9.832;2024-02-28T13:09:08;54.53;;;18.80;;
38123;SDS011;23934;47.998;9.832;2024-02-28T13:11:37;65.78;;;21.00;;
38123;SDS011;23934;47.998;9.832;2024-02-28T13:14:03;64.05;;;20.00;;
38123;SDS011;23934;47.998;9.832;2024-02-28T13:16:29;57.60;;;19.55;;
38123;SDS011;23934;47.998;9.832;2024-02-28T13:18:55;53.65;;;18.38;;
38123;SDS011;23934;47.998;9.832;2024-02-28T13:21:21;57.70;;;19.58;;
38123;SDS011;23934;47.998;9.832;2024-02-28T13:23:47;53.13;;;18.08;;
38123;SDS011;23934;47.998;9.832;2024-02-28T13:26:13;54.78;;;18.60;;
38123;SDS011;23934;47.998;9.832;2024-02-28T13:28:43;54.67;;;19.33;;
38123;SDS011;23934;47.998;9.832;2024-02-28T13:31:09;55.85;;;19.23;;
38123;SDS011;23934;47.998;9.832;2024-02-28T13:33:35;55.92;;;17.42;;
38123;SDS011;23934;47.998;9.832;2024-02-28T13:36:02;60.28;;;19.08;;
38123;SDS011;23934;47.998;9.832;2024-02-28T13:38:28;54.40;;;18.42;;
38123;SDS011;23934;47.998;9.832;2024-02-28T13:40:54;50.15;;;16.35;;
38123;SDS011;23934;47.998;9.832;2024-02-28T13:43:20;46.15;;;16.23;;
38123;SDS011;23934;47.998;9.832;2024-02-28T13:45:46;62.00;;;18.70;;
38123;SDS011;23934;47.998;9.832;2024-02-28T13:48:20;55.45;;;18.52;;
38123;SDS011;23934;47.998;9.832;2024-02-28T13:50:47;54.97;;;17.70;;
38123;SDS011;23934;47.998;9.832;2024-02-28T13:53:13;61.90;;;21.05;;
38123;SDS011;23934;47.998;9.832;2024-02-28T13:55:40;61.88;;;19.75;;
38123;SDS011;23934;47.998;9.832;2024-02-28T13:58:07;58.15;;;19.95;;
38123;SDS011;23934;47.998;9.832;2024-02-28T14:00:34;57.72;;;19.63;;
38123;SDS011;23934;47.998;9.832;2024-02-28T14:03:01;54.65;;;20.15;;
38123;SDS011;23934;47.998;9.832;2024-02-28T14:05:27;51.10;;;18.08;;
38123;SDS011;23934;47.998;9.832;2024-02-28T14:07:54;55.40;;;18.63;;
38123;SDS011;23934;47.998;9.832;2024-02-28T14:10:19;49.97;;;17.95;;
38123;SDS011;23934;47.998;9.832;2024-02-28T14:12:46;53.97;;;19.00;;
38123;SDS011;23934;47.998;9.832;2024-02-28T14:15:12;47.47;;;18.10;;